createdAt,value
2023-11-24T00:01:43.829Z,7.27
2023-11-24T00:04:29.550Z,7.27
2023-11-24T00:07:18.470Z,7.26
2023-11-24T00:10:05.993Z,7.26
2023-11-24T00:12:51.761Z,7.25
2023-11-24T00:15:38.204Z,7.26
2023-11-24T00:18:24.149Z,7.25
2023-11-24T00:21:10.487Z,7.22
2023-11-24T00:23:55.829Z,7.20
2023-11-24T00:26:41.309Z,7.16
2023-11-24T00:29:27.630Z,7.12
2023-11-24T00:32:13.451Z,7.10
2023-11-24T00:34:58.897Z,7.07
2023-11-24T00:37:45.241Z,7.08
2023-11-24T00:40:32.059Z,7.08
2023-11-24T00:43:17.649Z,7.07
2023-11-24T00:46:03.450Z,7.06
2023-11-24T00:48:49.304Z,6.97
2023-11-24T00:51:35.011Z,7.03
2023-11-24T00:54:20.533Z,7.03
2023-11-24T00:57:06.431Z,7.02
2023-11-24T00:59:52.106Z,7.02
2023-11-24T01:02:38.262Z,7.03
2023-11-24T01:05:23.998Z,7.03
2023-11-24T01:08:09.406Z,7.05
2023-11-24T01:10:57.622Z,7.06
2023-11-24T01:13:43.354Z,7.07
2023-11-24T01:16:29.911Z,7.08
2023-11-24T01:19:18.679Z,7.09
2023-11-24T01:22:04.629Z,7.10
2023-11-24T01:24:49.973Z,7.09
2023-11-24T01:27:35.498Z,7.09
2023-11-24T01:30:20.979Z,7.07
2023-11-24T01:33:06.730Z,7.07
2023-11-24T01:35:53.920Z,7.05
2023-11-24T01:38:39.710Z,7.05
2023-11-24T01:41:25.263Z,7.04
2023-11-24T01:44:10.728Z,7.04
2023-11-24T01:46:56.627Z,7.02
2023-11-24T01:49:42.357Z,6.99
2023-11-24T01:52:28.708Z,6.99
2023-11-24T01:55:14.764Z,6.98
2023-11-24T01:58:00.864Z,6.98
2023-11-24T02:00:47.017Z,6.96
2023-11-24T02:03:32.649Z,6.94
2023-11-24T02:06:19.253Z,6.90
2023-11-24T02:09:05.249Z,6.92
2023-11-24T02:11:51.505Z,6.89
2023-11-24T02:14:37.298Z,6.88
2023-11-24T02:17:22.677Z,6.86
2023-11-24T02:20:12.510Z,6.85
2023-11-24T02:22:58.105Z,6.85
2023-11-24T02:25:44.613Z,6.84
2023-11-24T02:28:30.197Z,6.81
2023-11-24T02:31:16.106Z,6.77
2023-11-24T02:34:05.269Z,6.71
2023-11-24T02:36:50.992Z,6.73
2023-11-24T02:39:36.430Z,6.74
2023-11-24T02:42:22.061Z,6.75
2023-11-24T02:45:08.450Z,6.77
2023-11-24T02:47:54.335Z,6.78
2023-11-24T02:50:40.166Z,6.77
2023-11-24T02:53:25.559Z,6.78
2023-11-24T02:56:11.606Z,6.80
2023-11-24T02:58:57.221Z,6.82
2023-11-24T03:01:42.933Z,6.83
2023-11-24T03:04:29.135Z,6.83
2023-11-24T03:07:15.509Z,6.84
2023-11-24T03:10:01.313Z,6.86
2023-11-24T03:12:47.535Z,6.86
2023-11-24T03:15:33.219Z,6.86
2023-11-24T03:18:18.958Z,6.87
2023-11-24T03:21:04.770Z,6.88
2023-11-24T03:23:50.191Z,6.91
2023-11-24T03:26:35.928Z,6.91
2023-11-24T03:29:21.591Z,6.93
2023-11-24T03:32:08.107Z,6.94
2023-11-24T03:34:53.709Z,6.95
2023-11-24T03:37:39.227Z,6.72
2023-11-24T03:40:25.251Z,5.96
2023-11-24T03:43:11.132Z,5.30
2023-11-24T03:45:57.717Z,4.86
2023-11-24T03:48:43.632Z,4.54
2023-11-24T03:51:28.981Z,4.32
2023-11-24T03:54:14.604Z,4.16
2023-11-24T03:57:00.303Z,4.05
2023-11-24T03:59:46.277Z,3.93
2023-11-24T04:02:32.039Z,3.83
2023-11-24T04:05:17.771Z,3.75
2023-11-24T04:08:03.523Z,3.69
2023-11-24T04:10:48.952Z,3.68
2023-11-24T04:13:34.227Z,3.67
2023-11-24T04:16:20.856Z,3.67
2023-11-24T04:19:07.234Z,3.70
2023-11-24T04:21:52.715Z,3.72
2023-11-24T04:24:40.008Z,3.74
2023-11-24T04:27:25.658Z,3.77
2023-11-24T04:30:11.941Z,3.81
2023-11-24T04:32:58.505Z,3.88
2023-11-24T04:35:43.931Z,3.93
2023-11-24T04:38:29.859Z,3.97
2023-11-24T04:41:15.843Z,4.01
2023-11-24T04:44:01.582Z,4.05
2023-11-24T04:46:47.585Z,4.10
2023-11-24T04:49:33.333Z,4.13
2023-11-24T04:52:19.138Z,4.17
2023-11-24T04:55:07.724Z,4.20
2023-11-24T04:57:53.546Z,4.24
2023-11-24T05:00:39.433Z,4.28
2023-11-24T05:03:25.210Z,4.33
2023-11-24T05:06:11.442Z,4.35
2023-11-24T05:08:57.192Z,4.39
2023-11-24T05:11:42.596Z,4.40
2023-11-24T05:14:28.212Z,4.42
2023-11-24T05:17:14.017Z,4.42
2023-11-24T05:19:59.648Z,4.44
2023-11-24T05:22:46.075Z,4.46
2023-11-24T05:25:31.423Z,4.46
2023-11-24T05:28:17.096Z,4.45
2023-11-24T05:33:52.786Z,4.41
2023-11-24T05:36:38.348Z,4.41
2023-11-24T05:39:24.055Z,4.38
2023-11-24T05:42:09.922Z,4.36
2023-11-24T05:44:55.403Z,4.34
2023-11-24T05:47:41.568Z,4.35
2023-11-24T05:50:27.400Z,4.32
2023-11-24T05:53:13.026Z,4.30
2023-11-24T05:55:58.414Z,4.28
2023-11-24T05:58:45.281Z,4.33
2023-11-24T06:01:31.093Z,4.29
2023-11-24T06:04:18.470Z,4.28
2023-11-24T06:07:05.712Z,4.28
2023-11-24T06:09:52.026Z,4.29
2023-11-24T06:12:37.393Z,4.29
2023-11-24T06:15:23.994Z,4.32
2023-11-24T06:18:10.011Z,4.33
2023-11-24T06:20:55.403Z,4.30
2023-11-24T06:23:41.118Z,4.32
2023-11-24T06:26:28.861Z,4.36
2023-11-24T06:29:15.892Z,4.38
2023-11-24T06:32:01.397Z,4.43
2023-11-24T06:34:46.862Z,4.45
2023-11-24T06:37:32.393Z,4.49
2023-11-24T06:40:18.121Z,4.52
2023-11-24T06:43:03.833Z,4.54
2023-11-24T06:45:49.419Z,4.55
2023-11-24T06:48:36.527Z,4.53
2023-11-24T06:51:22.111Z,4.47
2023-11-24T06:54:07.979Z,4.45
2023-11-24T06:56:53.759Z,4.45
2023-11-24T06:59:39.395Z,4.42
2023-11-24T07:02:25.216Z,4.41
2023-11-24T07:05:10.760Z,4.39
2023-11-24T07:07:56.600Z,4.38
2023-11-24T07:10:42.078Z,4.39
2023-11-24T07:13:28.588Z,4.43
2023-11-24T07:16:14.812Z,4.45
2023-11-24T07:19:01.727Z,4.48
2023-11-24T07:21:47.666Z,4.49
2023-11-24T07:24:33.806Z,4.54
2023-11-24T07:27:19.167Z,4.59
2023-11-24T07:30:05.014Z,4.64
2023-11-24T07:32:54.145Z,4.69
2023-11-24T07:35:40.228Z,4.71
2023-11-24T07:38:26.542Z,4.71
2023-11-24T07:41:12.464Z,4.73
2023-11-24T07:43:58.844Z,4.75
2023-11-24T07:46:44.572Z,4.77
2023-11-24T07:49:29.919Z,4.81
2023-11-24T07:52:16.519Z,4.86
2023-11-24T07:55:01.875Z,4.89
2023-11-24T07:57:47.955Z,4.92
2023-11-24T08:00:33.966Z,4.93
2023-11-24T08:03:20.541Z,4.88
2023-11-24T08:06:09.309Z,4.84
2023-11-24T08:08:57.734Z,4.79
2023-11-24T08:11:43.471Z,4.76
2023-11-24T08:14:30.673Z,4.71
2023-11-24T08:17:16.201Z,4.70
2023-11-24T08:20:01.667Z,4.69
2023-11-24T08:22:47.105Z,4.69
2023-11-24T08:25:32.572Z,4.71
2023-11-24T08:28:17.838Z,4.73
2023-11-24T08:31:03.493Z,4.70
2023-11-24T08:33:52.144Z,4.72
2023-11-24T08:36:37.957Z,4.74
2023-11-24T08:39:23.883Z,4.75
2023-11-24T08:42:10.877Z,4.77
2023-11-24T08:44:56.134Z,4.79
2023-11-24T08:47:44.799Z,4.80
2023-11-24T08:50:31.016Z,4.82
2023-11-24T08:53:16.723Z,4.84
2023-11-24T08:56:05.217Z,4.85
2023-11-24T08:58:51.640Z,4.89
2023-11-24T09:01:38.127Z,4.90
2023-11-24T09:04:24.436Z,4.91
2023-11-24T09:07:10.506Z,4.94
2023-11-24T09:09:56.177Z,4.94
2023-11-24T09:12:42.029Z,4.97
2023-11-24T09:15:27.698Z,4.97
2023-11-24T09:18:13.482Z,4.98
2023-11-24T09:20:59.126Z,5.01
2023-11-24T09:23:45.461Z,5.02
2023-11-24T09:26:30.947Z,5.04
2023-11-24T09:29:16.414Z,5.03
2023-11-24T09:32:02.644Z,5.07
2023-11-24T09:34:49.747Z,5.13
2023-11-24T09:40:24.110Z,5.17
2023-11-24T09:43:11.509Z,5.11
2023-11-24T09:45:57.486Z,5.08
2023-11-24T09:48:44.614Z,5.07
2023-11-24T09:51:30.427Z,5.08
2023-11-24T09:54:19.206Z,5.10
2023-11-24T09:57:05.323Z,5.11
2023-11-24T09:59:51.395Z,5.10
2023-11-24T10:02:38.115Z,5.09
2023-11-24T10:05:23.639Z,5.08
2023-11-24T10:08:09.326Z,5.07
2023-11-24T10:11:09.769Z,5.09
2023-11-24T10:13:56.723Z,5.10
2023-11-24T10:16:43.343Z,5.16
2023-11-24T10:19:29.139Z,5.21
2023-11-24T10:22:14.610Z,5.26
2023-11-24T10:25:00.358Z,5.30
2023-11-24T10:27:46.208Z,5.34
2023-11-24T10:30:33.700Z,5.42
2023-11-24T10:33:34.896Z,5.45
2023-11-24T10:36:26.550Z,5.50
2023-11-24T10:39:16.957Z,5.52
2023-11-24T10:42:04.858Z,5.54
2023-11-24T10:44:55.818Z,5.56
2023-11-24T10:48:01.330Z,5.54
2023-11-24T10:51:48.529Z,5.58
2023-11-24T10:54:40.622Z,5.62
2023-11-24T10:57:30.020Z,5.61
2023-11-24T11:00:16.222Z,5.59
2023-11-24T11:03:02.192Z,5.62
2023-11-24T11:06:10.247Z,5.61
2023-11-24T11:09:20.567Z,5.60
2023-11-24T11:12:20.747Z,5.56
2023-11-24T11:15:10.609Z,5.49
2023-11-24T11:18:15.733Z,5.35
2023-11-24T11:21:12.530Z,5.10
2023-11-24T11:23:59.047Z,4.93
2023-11-24T11:26:46.668Z,4.83
2023-11-24T11:29:33.553Z,4.73
2023-11-24T11:32:19.124Z,4.63
2023-11-24T11:35:04.978Z,4.61
2023-11-24T11:37:59.265Z,4.61
2023-11-24T11:40:45.797Z,4.61
2023-11-24T11:43:32.251Z,4.63
2023-11-24T11:46:17.927Z,4.67
2023-11-24T11:49:07.520Z,4.72
2023-11-24T11:52:02.816Z,4.75
2023-11-24T11:54:50.941Z,4.78
2023-11-24T11:57:36.651Z,4.77
2023-11-24T12:00:30.099Z,4.79
2023-11-24T12:03:19.606Z,4.79
2023-11-24T12:06:07.100Z,4.76
2023-11-24T12:08:53.178Z,4.75
2023-11-24T12:11:39.068Z,4.71
2023-11-24T12:14:24.515Z,4.67
2023-11-24T12:17:11.652Z,4.66
2023-11-24T12:19:57.793Z,4.71
2023-11-24T12:22:45.190Z,4.78
2023-11-24T12:25:31.586Z,4.81
2023-11-24T12:28:17.490Z,4.82
2023-11-24T12:31:04.547Z,4.80
2023-11-24T12:33:53.414Z,4.79
2023-11-24T12:36:38.902Z,4.82
2023-11-24T12:39:25.263Z,4.86
2023-11-24T12:42:12.282Z,4.91
2023-11-24T12:45:00.970Z,4.99
2023-11-24T12:47:46.364Z,4.98
2023-11-24T12:50:32.107Z,5.04
2023-11-24T12:53:21.518Z,5.17
2023-11-24T12:56:07.606Z,5.23
2023-11-24T12:58:53.257Z,5.29
2023-11-24T13:01:39.060Z,5.29
2023-11-24T13:04:25.187Z,5.29
2023-11-24T13:07:10.876Z,5.30
2023-11-24T13:09:56.420Z,5.32
2023-11-24T13:12:42.852Z,5.30
2023-11-24T13:15:29.454Z,5.29
2023-11-24T13:18:15.230Z,5.26
2023-11-24T13:21:01.048Z,5.24
2023-11-24T13:23:46.959Z,5.20
2023-11-24T13:26:32.419Z,5.23
2023-11-24T13:29:17.759Z,5.19
2023-11-24T13:32:04.283Z,5.17
2023-11-24T13:34:50.214Z,5.16
2023-11-24T13:37:36.113Z,5.16
2023-11-24T13:40:27.550Z,5.17
2023-11-24T13:43:14.764Z,5.19
2023-11-24T13:46:00.789Z,5.29
2023-11-24T13:48:48.039Z,5.54
2023-11-24T13:51:33.506Z,5.51
2023-11-24T13:54:19.202Z,5.49
2023-11-24T13:57:05.128Z,5.41
2023-11-24T13:59:50.911Z,5.35
2023-11-24T14:02:37.606Z,5.32
2023-11-24T14:05:23.367Z,5.28
2023-11-24T14:08:10.676Z,5.26
2023-11-24T14:10:56.230Z,5.26
2023-11-24T14:13:41.820Z,5.22
2023-11-24T14:16:29.626Z,5.20
2023-11-24T14:19:15.622Z,5.16
2023-11-24T14:22:05.809Z,5.15
2023-11-24T14:24:51.924Z,5.12
2023-11-24T14:27:40.946Z,5.12
2023-11-24T14:30:26.504Z,5.10
2023-11-24T14:33:12.804Z,5.08
2023-11-24T14:35:58.681Z,5.06
2023-11-24T14:38:49.634Z,5.05
2023-11-24T14:41:35.097Z,5.03
2023-11-24T14:44:21.449Z,4.73
2023-11-24T14:47:09.863Z,4.31
2023-11-24T14:49:55.415Z,3.96
2023-11-24T14:52:41.091Z,3.70
2023-11-24T14:55:30.025Z,3.43
2023-11-24T14:58:18.402Z,3.23
2023-11-24T15:01:06.442Z,3.04
2023-11-24T15:03:53.819Z,2.86
2023-11-24T15:06:40.098Z,2.72
2023-11-24T15:09:26.534Z,2.65
2023-11-24T15:12:12.244Z,2.58
2023-11-24T15:15:00.033Z,2.51
2023-11-24T15:17:45.655Z,2.47
2023-11-24T15:20:33.826Z,2.43
2023-11-24T15:23:20.366Z,2.39
2023-11-24T15:26:06.470Z,2.36
2023-11-24T15:28:55.490Z,2.35
2023-11-24T15:31:42.768Z,2.33
2023-11-24T15:34:30.053Z,2.32
2023-11-24T15:37:16.113Z,2.31
2023-11-24T15:40:02.553Z,2.29
2023-11-24T15:42:55.470Z,2.28
2023-11-24T15:45:42.861Z,2.24
2023-11-24T15:48:29.773Z,2.23
2023-11-24T15:51:19.866Z,2.24
2023-11-24T15:54:08.396Z,2.26
2023-11-24T15:56:55.475Z,2.30
2023-11-24T15:59:47.281Z,2.32
2023-11-24T16:02:33.921Z,2.34
2023-11-24T16:05:19.474Z,2.34
2023-11-24T16:08:09.144Z,2.37
2023-11-24T16:10:57.631Z,2.40
2023-11-24T16:13:46.624Z,2.39
2023-11-24T16:16:33.038Z,2.41
2023-11-24T16:19:18.495Z,2.43
2023-11-24T16:22:04.384Z,2.45
2023-11-24T16:24:52.138Z,2.45
2023-11-24T16:27:41.966Z,2.47
2023-11-24T16:30:28.043Z,2.47
2023-11-24T16:33:14.045Z,2.45
2023-11-24T16:36:02.060Z,2.44
2023-11-24T16:38:47.284Z,2.41
2023-11-24T16:41:34.071Z,2.38
2023-11-24T16:44:19.658Z,2.34
2023-11-24T16:47:07.311Z,2.31
2023-11-24T16:49:54.208Z,2.30
2023-11-24T16:52:47.480Z,2.27
2023-11-24T16:55:33.902Z,2.21
2023-11-24T16:58:20.064Z,2.15
2023-11-24T17:01:06.236Z,2.08
2023-11-24T17:03:52.118Z,2.04
2023-11-24T17:06:37.603Z,1.99
2023-11-24T17:09:23.712Z,1.94
2023-11-24T17:12:09.335Z,1.89
2023-11-24T17:14:55.255Z,1.87
2023-11-24T17:17:42.219Z,1.82
2023-11-24T17:20:28.303Z,1.79
2023-11-24T17:23:17.612Z,1.75
2023-11-24T17:26:03.786Z,1.74
2023-11-24T17:28:54.083Z,1.71
2023-11-24T17:31:42.112Z,1.67
2023-11-24T17:34:28.089Z,1.65
2023-11-24T17:37:13.781Z,1.60
2023-11-24T17:40:01.591Z,1.55
2023-11-24T17:42:46.895Z,1.52
2023-11-24T17:45:33.700Z,1.48
2023-11-24T17:48:20.983Z,1.44
2023-11-24T17:51:06.676Z,1.43
2023-11-24T17:55:50.919Z,1.31
2023-11-24T17:58:36.585Z,1.33
2023-11-24T18:01:24.488Z,1.32
2023-11-24T18:04:10.367Z,1.33
2023-11-24T18:06:56.016Z,1.31
2023-11-24T18:09:41.518Z,1.26
2023-11-24T18:12:30.297Z,1.27
2023-11-24T18:15:15.953Z,1.25
2023-11-24T18:18:02.651Z,1.25
2023-11-24T18:20:48.838Z,1.26
2023-11-24T18:23:35.947Z,1.25
2023-11-24T18:26:21.454Z,1.26
2023-11-24T18:29:07.779Z,1.28
2023-11-24T18:31:53.862Z,1.33
2023-11-24T18:34:40.202Z,1.40
2023-11-24T18:37:27.019Z,1.47
2023-11-24T18:40:14.764Z,1.53
2023-11-24T18:43:00.304Z,1.58
2023-11-24T18:45:45.715Z,1.64
2023-11-24T18:48:31.264Z,1.68
2023-11-24T18:51:16.828Z,1.73
2023-11-24T18:54:02.369Z,1.77
2023-11-24T18:56:48.864Z,1.80
2023-11-24T18:59:34.428Z,1.83
2023-11-24T19:02:20.245Z,1.84
2023-11-24T19:05:07.065Z,1.84
2023-11-24T19:07:52.656Z,1.83
2023-11-24T19:10:39.142Z,1.81
2023-11-24T19:13:25.640Z,1.81
2023-11-24T19:16:10.988Z,1.79
2023-11-24T19:18:56.522Z,1.79
2023-11-24T19:21:42.245Z,1.79
2023-11-24T19:24:28.338Z,1.76
2023-11-24T19:27:14.126Z,1.74
2023-11-24T19:30:03.177Z,1.75
2023-11-24T19:32:48.931Z,1.74
2023-11-24T19:35:34.676Z,1.74
2023-11-24T19:38:20.509Z,1.77
2023-11-24T19:41:06.405Z,1.78
2023-11-24T19:43:53.110Z,1.80
2023-11-24T19:46:39.491Z,1.84
2023-11-24T19:49:25.295Z,1.86
2023-11-24T19:52:11.000Z,1.90
2023-11-24T19:54:56.946Z,1.92
2023-11-24T19:57:42.435Z,1.95
2023-11-24T20:00:27.826Z,2.00
2023-11-24T20:03:13.322Z,2.04
2023-11-24T20:05:58.862Z,2.05
2023-11-24T20:08:46.407Z,2.07
2023-11-24T20:11:31.755Z,2.07
2023-11-24T20:14:18.596Z,2.07
2023-11-24T20:17:05.207Z,2.07
2023-11-24T20:19:51.164Z,2.06
2023-11-24T20:22:36.887Z,2.06
2023-11-24T20:25:22.429Z,2.05
2023-11-24T20:28:10.715Z,2.05
2023-11-24T20:30:57.267Z,2.04
2023-11-24T20:33:43.665Z,2.02
2023-11-24T20:36:29.529Z,2.04
2023-11-24T20:39:17.197Z,2.04
2023-11-24T20:42:02.677Z,2.05
2023-11-24T20:44:49.135Z,2.04
2023-11-24T20:47:35.494Z,2.04
2023-11-24T20:50:21.063Z,2.03
2023-11-24T20:53:06.817Z,2.04
2023-11-24T20:55:52.459Z,2.04
2023-11-24T20:58:39.117Z,2.04
2023-11-24T21:01:25.675Z,2.05
2023-11-24T21:04:13.485Z,2.02
2023-11-24T21:07:01.321Z,2.05
2023-11-24T21:09:47.459Z,2.04
2023-11-24T21:12:33.344Z,2.02
2023-11-24T21:15:19.859Z,2.04
2023-11-24T21:18:06.598Z,2.04
2023-11-24T21:20:54.772Z,2.04
2023-11-24T21:23:42.098Z,2.04
2023-11-24T21:26:29.494Z,2.03
2023-11-24T21:29:15.185Z,2.03
2023-11-24T21:32:00.868Z,2.02
2023-11-24T21:34:46.701Z,2.03
2023-11-24T21:37:32.215Z,2.03
2023-11-24T21:40:18.948Z,2.03
2023-11-24T21:43:04.367Z,2.01
2023-11-24T21:45:49.831Z,1.97
2023-11-24T21:48:36.680Z,1.93
2023-11-24T21:51:22.644Z,1.91
2023-11-24T21:54:08.652Z,1.90
2023-11-24T21:56:54.351Z,1.89
2023-11-24T21:59:40.250Z,1.88
2023-11-24T22:02:28.623Z,1.85
2023-11-24T22:05:14.824Z,1.85
2023-11-24T22:08:00.336Z,1.87
2023-11-24T22:10:46.069Z,1.83
2023-11-24T22:13:32.280Z,1.72
2023-11-24T22:16:17.949Z,1.64
2023-11-24T22:19:03.741Z,1.58
2023-11-24T22:21:49.882Z,1.51
2023-11-24T22:24:35.446Z,1.44
2023-11-24T22:27:24.195Z,1.39
2023-11-24T22:30:10.748Z,1.40
2023-11-24T22:32:56.835Z,1.41
2023-11-24T22:35:43.608Z,1.39
2023-11-24T22:38:29.218Z,1.36
2023-11-24T22:41:24.338Z,1.38
2023-11-24T22:44:09.856Z,1.39
2023-11-24T22:46:55.916Z,1.38
2023-11-24T22:49:41.949Z,1.37
2023-11-24T22:52:29.026Z,1.36
2023-11-24T22:55:15.207Z,1.35
2023-11-24T22:58:00.812Z,1.35
2023-11-24T23:00:47.443Z,1.38
2023-11-24T23:03:33.340Z,1.43
2023-11-24T23:06:19.559Z,1.46
2023-11-24T23:09:08.034Z,1.48
2023-11-24T23:11:53.783Z,1.49
2023-11-24T23:14:40.181Z,1.51
2023-11-24T23:17:26.305Z,1.54
2023-11-24T23:20:12.378Z,1.56
2023-11-24T23:22:59.134Z,1.60
2023-11-24T23:25:44.585Z,1.62
2023-11-24T23:28:30.211Z,1.64
2023-11-24T23:31:15.909Z,1.67
2023-11-24T23:34:01.676Z,1.67
2023-11-24T23:36:47.336Z,1.64
2023-11-24T23:39:36.153Z,1.65
2023-11-24T23:42:25.592Z,1.64
2023-11-24T23:45:11.846Z,1.65
2023-11-24T23:47:59.254Z,1.67
2023-11-24T23:50:44.877Z,1.68
2023-11-24T23:53:30.508Z,1.69
2023-11-24T23:56:16.492Z,1.71
2023-11-24T23:59:03.690Z,1.72
